createdAt,value
2017-06-03T00:00:29.332Z,42.04
2017-06-03T00:01:38.292Z,42.43
2017-06-03T00:02:47.500Z,42.52
2017-06-03T00:03:56.462Z,43
2017-06-03T00:05:05.427Z,42.71
2017-06-03T00:06:14.386Z,42.9
2017-06-03T00:07:23.339Z,42.9
2017-06-03T00:08:32.545Z,43.1
2017-06-03T00:09:41.512Z,42.81
2017-06-03T00:10:50.467Z,42.9
2017-06-03T00:11:59.422Z,42.81
2017-06-03T00:13:08.378Z,42.61
2017-06-03T00:14:17.587Z,42.81
2017-06-03T00:15:26.549Z,43.38
2017-06-03T00:16:35.513Z,43
2017-06-03T00:17:44.471Z,43.29
2017-06-03T00:18:53.429Z,43
2017-06-03T00:20:02.641Z,43
2017-06-03T00:21:11.600Z,43.38
2017-06-03T00:22:20.557Z,43.19
2017-06-03T00:23:29.522Z,43.19
2017-06-03T00:24:38.483Z,43.38
2017-06-03T00:25:47.688Z,43.29
2017-06-03T00:26:56.648Z,43.29
2017-06-03T00:28:05.608Z,43.65
2017-06-03T00:29:14.562Z,43.84
2017-06-03T00:30:23.527Z,43.74
2017-06-03T00:31:32.742Z,43.74
2017-06-03T00:32:41.704Z,43.74
2017-06-03T00:33:50.660Z,43.84
2017-06-03T00:34:59.621Z,44.03
2017-06-03T00:36:08.902Z,44.13
2017-06-03T00:37:18.163Z,43.94
2017-06-03T00:38:27.123Z,44.42
2017-06-03T00:39:36.080Z,44.42
2017-06-03T00:40:45.041Z,44.42
2017-06-03T00:41:54.007Z,44.32
2017-06-03T00:43:03.214Z,44.51
2017-06-03T00:44:12.198Z,44.61
2017-06-03T00:45:21.161Z,44.51
2017-06-03T00:46:30.123Z,44.61
2017-06-03T00:47:39.087Z,44.51
2017-06-03T00:48:48.292Z,44.8
2017-06-03T00:49:57.252Z,45
2017-06-03T00:51:06.212Z,45.09
2017-06-03T00:52:15.168Z,44.9
2017-06-03T00:53:24.213Z,45
2017-06-03T00:54:33.510Z,45.37
2017-06-03T00:55:42.464Z,45.67
2017-06-03T00:56:51.424Z,45.47
2017-06-03T00:58:00.386Z,45.47
2017-06-03T00:59:09.347Z,45.57
2017-06-03T01:00:18.554Z,45.47
2017-06-03T01:01:27.514Z,45.76
2017-06-03T01:02:36.469Z,45.57
2017-06-03T01:03:45.426Z,45.57
2017-06-03T01:04:54.382Z,45.95
2017-06-03T01:06:03.592Z,45.95
2017-06-03T01:07:12.551Z,45.86
2017-06-03T01:08:21.599Z,46.43
2017-06-03T01:09:30.557Z,46.14
2017-06-03T01:10:39.537Z,46.62
2017-06-03T01:11:48.739Z,46.53
2017-06-03T01:12:57.692Z,46.53
2017-06-03T01:14:06.644Z,46.81
2017-06-03T01:15:15.602Z,46.62
2017-06-03T01:16:24.565Z,47.01
2017-06-03T01:17:33.779Z,46.91
2017-06-03T01:18:42.736Z,46.81
2017-06-03T01:19:51.691Z,47.01
2017-06-03T01:21:00.653Z,47.01
2017-06-03T01:22:09.608Z,47.46
2017-06-03T01:23:18.811Z,47.37
2017-06-03T01:24:27.776Z,47.85
2017-06-03T01:25:37.051Z,47.37
2017-06-03T01:26:46.007Z,47.37
2017-06-03T01:27:54.965Z,47.56
2017-06-03T01:29:04.170Z,47.75
2017-06-03T01:30:13.128Z,47.85
2017-06-03T01:31:22.084Z,47.46
2017-06-03T01:32:31.040Z,47.66
2017-06-03T01:33:39.996Z,47.66
2017-06-03T01:34:49.205Z,47.85
2017-06-03T01:35:58.254Z,47.85
2017-06-03T01:37:07.211Z,48.04
2017-06-03T01:38:16.174Z,47.85
2017-06-03T01:39:25.131Z,48.04
2017-06-03T01:40:34.342Z,47.75
2017-06-03T01:41:43.307Z,47.94
2017-06-03T01:42:52.351Z,48.33
2017-06-03T01:44:01.309Z,47.94
2017-06-03T01:45:10.600Z,48.43
2017-06-03T01:46:19.822Z,48.23
2017-06-03T01:47:28.776Z,48.04
2017-06-03T01:48:37.731Z,48.52
2017-06-03T01:49:46.682Z,48.71
2017-06-03T01:50:55.642Z,48.52
2017-06-03T01:52:04.847Z,48.23
2017-06-03T01:53:14.130Z,48.43
2017-06-03T01:54:23.089Z,48.8
2017-06-03T01:55:32.072Z,48.8
2017-06-03T01:56:41.032Z,48.61
2017-06-03T01:57:50.243Z,48.8
2017-06-03T01:58:59.197Z,49
2017-06-03T02:00:08.157Z,49
2017-06-03T02:01:17.119Z,49.1
2017-06-03T02:02:26.078Z,48.71
2017-06-03T02:03:35.284Z,49.19
2017-06-03T02:04:44.565Z,48.8
2017-06-03T02:05:53.521Z,49.1
2017-06-03T02:07:02.476Z,49.29
2017-06-03T02:08:11.430Z,49.57
2017-06-03T02:09:20.636Z,49.19
2017-06-03T02:10:29.602Z,49.57
2017-06-03T02:11:38.562Z,49.48
2017-06-03T02:12:47.519Z,49.38
2017-06-03T02:13:56.477Z,49.57
2017-06-03T02:15:05.681Z,49.19
2017-06-03T02:16:14.640Z,49.38
2017-06-03T02:17:23.593Z,49.57
2017-06-03T02:18:32.551Z,49.48
2017-06-03T02:19:41.517Z,49.38
2017-06-03T02:20:50.731Z,49.29
2017-06-03T02:21:59.694Z,49.38
2017-06-03T02:23:08.972Z,49.38
2017-06-03T02:24:17.925Z,49.38
2017-06-03T02:25:26.879Z,49.48
2017-06-03T02:26:36.086Z,49.48
2017-06-03T02:27:45.039Z,49.38
2017-06-03T02:28:53.999Z,49.48
2017-06-03T02:30:03.278Z,49.96
2017-06-03T02:31:12.248Z,49.76
2017-06-03T02:32:21.454Z,49.57
2017-06-03T02:33:30.413Z,49.38
2017-06-03T02:34:39.372Z,49.48
2017-06-03T02:35:48.355Z,49.48
2017-06-03T02:36:57.311Z,49.19
2017-06-03T02:38:06.519Z,49.1
2017-06-03T02:39:15.476Z,49.38
2017-06-03T02:40:24.438Z,49.29
2017-06-03T02:41:33.402Z,49.19
2017-06-03T02:42:42.361Z,49.19
2017-06-03T02:43:51.602Z,49.38
2017-06-03T02:45:00.563Z,49.29
2017-06-03T02:46:09.523Z,49.38
2017-06-03T02:47:18.570Z,49.38
2017-06-03T02:48:27.533Z,49.19
2017-06-03T02:49:36.750Z,49.19
2017-06-03T02:50:45.704Z,49.38
2017-06-03T02:51:54.660Z,49.19
2017-06-03T02:53:03.622Z,49.29
2017-06-03T02:54:12.575Z,49.38
2017-06-03T02:55:21.779Z,49
2017-06-03T02:56:30.738Z,49.1
2017-06-03T02:57:39.696Z,49
2017-06-03T02:58:48.655Z,49.19
2017-06-03T02:59:57.612Z,49.29
2017-06-03T03:01:06.823Z,49.38
2017-06-03T03:02:15.778Z,49.48
2017-06-03T03:03:24.749Z,49.57
2017-06-03T03:04:33.708Z,49.48
2017-06-03T03:05:42.663Z,49.48
2017-06-03T03:06:51.873Z,49.48
2017-06-03T03:08:00.833Z,49.38
2017-06-03T03:09:09.786Z,49.67
2017-06-03T03:10:18.742Z,49.29
2017-06-03T03:11:27.705Z,49.48
2017-06-03T03:12:36.907Z,49.29
2017-06-03T03:13:45.866Z,49
2017-06-03T03:14:54.821Z,49
2017-06-03T03:16:03.802Z,49.16
2017-06-03T03:17:12.759Z,48.9
2017-06-03T03:18:21.962Z,49
2017-06-03T03:19:30.925Z,49
2017-06-03T03:20:39.886Z,49.1
2017-06-03T03:21:48.844Z,49.29
2017-06-03T03:22:57.811Z,49
2017-06-03T03:24:07.018Z,49
2017-06-03T03:25:15.996Z,49.38
2017-06-03T03:26:24.952Z,49.1
2017-06-03T03:27:34.235Z,49.19
2017-06-03T03:28:43.195Z,49
2017-06-03T03:29:52.403Z,48.9
2017-06-03T03:31:01.364Z,49
2017-06-03T03:32:10.320Z,48.9
2017-06-03T03:33:19.278Z,49.29
2017-06-03T03:34:28.256Z,49.07
2017-06-03T03:35:37.462Z,49.29
2017-06-03T03:36:46.416Z,49.1
2017-06-03T03:37:55.372Z,49.38
2017-06-03T03:39:04.330Z,49.19
2017-06-03T03:40:13.288Z,49.26
2017-06-03T03:41:22.495Z,49.57
2017-06-03T03:42:31.453Z,49.65
2017-06-03T03:43:40.730Z,49.45
2017-06-03T03:44:49.683Z,49.55
2017-06-03T03:45:58.651Z,49.45
2017-06-03T03:47:07.858Z,49.55
2017-06-03T03:48:16.812Z,49.55
2017-06-03T03:49:25.769Z,49.36
2017-06-03T03:50:34.720Z,49.19
2017-06-03T03:51:43.677Z,49.29
2017-06-03T03:52:52.883Z,49.48
2017-06-03T03:54:01.838Z,49.36
2017-06-03T03:55:10.799Z,49.36
2017-06-03T03:56:19.751Z,49.38
2017-06-03T03:57:29.042Z,49.45
2017-06-03T03:58:38.255Z,49.93
2017-06-03T03:59:47.207Z,49.93
2017-06-03T04:00:56.163Z,49.74
2017-06-03T04:02:05.119Z,49.93
2017-06-03T04:03:14.101Z,50.12
2017-06-03T04:04:23.314Z,50.22
2017-06-03T04:05:32.269Z,50.41
2017-06-03T04:06:41.226Z,50.51
2017-06-03T04:07:50.183Z,50.41
2017-06-03T04:08:59.139Z,50.51
2017-06-03T04:10:08.351Z,50.99
2017-06-03T04:11:17.305Z,50.89
2017-06-03T04:12:26.268Z,50.79
2017-06-03T04:13:35.225Z,50.79
2017-06-03T04:14:44.177Z,51.18
2017-06-03T04:15:53.389Z,51.18
2017-06-03T04:17:02.350Z,51.08
2017-06-03T04:18:11.308Z,51.18
2017-06-03T04:19:20.264Z,51.08
2017-06-03T04:20:29.308Z,51.46
2017-06-03T04:21:38.514Z,51.46
2017-06-03T04:22:47.467Z,51.46
2017-06-03T04:23:56.418Z,51.65
2017-06-03T04:25:05.371Z,51.56
2017-06-03T04:26:14.328Z,51.85
2017-06-03T04:27:23.628Z,51.46
2017-06-03T04:28:32.593Z,51.85
2017-06-03T04:29:41.643Z,51.65
2017-06-03T04:30:50.594Z,51.46
2017-06-03T04:31:59.554Z,51.56
2017-06-03T04:33:09.083Z,51.65
2017-06-03T04:34:18.039Z,51.56
2017-06-03T04:35:26.996Z,51.65
2017-06-03T04:36:35.954Z,51.75
2017-06-03T04:37:44.907Z,51.85
2017-06-03T04:38:54.114Z,51.56
2017-06-03T04:40:03.080Z,51.75
2017-06-03T04:41:12.039Z,51.85
2017-06-03T04:42:21.325Z,52.42
2017-06-03T04:43:30.281Z,52.42
2017-06-03T04:44:39.488Z,52.23
2017-06-03T04:45:48.455Z,52.14
2017-06-03T04:46:57.412Z,52.14
2017-06-03T04:48:06.369Z,52.23
2017-06-03T04:49:15.330Z,52.42
2017-06-03T04:50:24.536Z,52.52
2017-06-03T04:51:33.494Z,52.62
2017-06-03T04:52:42.448Z,52.62
2017-06-03T04:53:51.399Z,52.52
2017-06-03T04:55:00.355Z,52.52
2017-06-03T04:56:09.563Z,52.42
2017-06-03T04:57:18.528Z,52.62
2017-06-03T04:58:27.488Z,52.42
2017-06-03T04:59:36.472Z,52.52
2017-06-03T05:00:45.428Z,52.42
2017-06-03T05:01:54.646Z,52.62
2017-06-03T05:03:03.608Z,52.33
2017-06-03T05:04:12.570Z,52.55
2017-06-03T05:05:21.524Z,52.42
2017-06-03T05:06:30.489Z,52.16
2017-06-03T05:07:39.700Z,52.36
2017-06-03T05:08:48.655Z,52.36
2017-06-03T05:09:57.635Z,52.07
2017-06-03T05:11:06.590Z,52.36
2017-06-03T05:12:15.550Z,52.45
2017-06-03T05:13:24.764Z,52.16
2017-06-03T05:14:33.717Z,52.26
2017-06-03T05:15:42.669Z,52.45
2017-06-03T05:16:51.626Z,51.49
2017-06-03T05:18:00.926Z,51.49
2017-06-03T05:19:10.133Z,51.78
2017-06-03T05:20:19.092Z,51.49
2017-06-03T05:21:28.072Z,51.87
2017-06-03T05:22:37.027Z,51.59
2017-06-03T05:23:46.311Z,51.59
2017-06-03T05:24:55.520Z,51.68
2017-06-03T05:26:04.475Z,51.49
2017-06-03T05:27:13.759Z,51.87
2017-06-03T05:28:23.059Z,51.59
2017-06-03T05:29:32.014Z,51.71
2017-06-03T05:30:41.225Z,51.78
2017-06-03T05:31:50.184Z,51.04
2017-06-03T05:32:59.140Z,51.01
2017-06-03T05:34:08.095Z,51.14
2017-06-03T05:35:17.066Z,51.51
2017-06-03T05:36:26.271Z,51.14
2017-06-03T05:37:35.225Z,50.84
2017-06-03T05:38:44.264Z,50.84
2017-06-03T05:39:53.222Z,51.14
2017-06-03T05:41:02.178Z,50.75
2017-06-03T05:42:11.433Z,50.56
2017-06-03T05:43:20.408Z,50.46
2017-06-03T05:44:29.771Z,50.27
2017-06-03T05:45:38.735Z,50.27
2017-06-03T05:46:47.703Z,50.27
2017-06-03T05:47:57.004Z,50.56
2017-06-03T05:49:06.044Z,51.04
2017-06-03T05:50:15.005Z,51.23
2017-06-03T05:51:23.965Z,50.94
2017-06-03T05:52:33.011Z,51.06
2017-06-03T05:53:42.313Z,50.56
2017-06-03T05:54:51.269Z,50.29
2017-06-03T05:56:00.223Z,50.2
2017-06-03T05:57:09.181Z,50.01
2017-06-03T05:58:18.137Z,49.82
2017-06-03T05:59:27.342Z,50.1
2017-06-03T06:00:36.296Z,49.91
2017-06-03T06:01:45.253Z,50.1
2017-06-03T06:02:54.210Z,49.52
2017-06-03T06:04:03.170Z,49.15
2017-06-03T06:05:12.384Z,49.62
2017-06-03T06:06:21.341Z,49.43
2017-06-03T06:07:30.297Z,49.62
2017-06-03T06:08:39.249Z,49.24
2017-06-03T06:09:48.210Z,49.36
2017-06-03T06:10:57.418Z,49.36
2017-06-03T06:12:06.378Z,49.46
2017-06-03T06:13:15.333Z,49.36
2017-06-03T06:14:24.313Z,49.74
2017-06-03T06:15:33.275Z,49.65
2017-06-03T06:16:42.485Z,49.65
2017-06-03T06:17:51.525Z,49.36
2017-06-03T06:19:00.480Z,49.07
2017-06-03T06:20:09.436Z,49.26
2017-06-03T06:21:18.396Z,48.79
2017-06-03T06:22:27.600Z,48.97
2017-06-03T06:23:36.562Z,49.07
2017-06-03T06:24:45.518Z,48.61
2017-06-03T06:25:54.494Z,48.79
2017-06-03T06:27:03.454Z,49.19
2017-06-03T06:28:12.709Z,49.38
2017-06-03T06:29:21.667Z,48.71
2017-06-03T06:30:30.620Z,48.52
2017-06-03T06:31:39.577Z,48.13
2017-06-03T06:32:48.535Z,48.23
2017-06-03T06:33:57.745Z,48.43
2017-06-03T06:35:06.711Z,48.43
2017-06-03T06:36:15.682Z,48.52
2017-06-03T06:37:24.985Z,48.43
2017-06-03T06:38:33.944Z,48.13
2017-06-03T06:39:43.150Z,48.23
2017-06-03T06:40:52.107Z,47.94
2017-06-03T06:42:01.066Z,47.66
2017-06-03T06:43:10.036Z,48.04
2017-06-03T06:44:18.994Z,48.04
2017-06-03T06:45:28.201Z,48.13
2017-06-03T06:46:37.161Z,48.04
2017-06-03T06:47:46.125Z,48.13
2017-06-03T06:48:55.081Z,48.13
2017-06-03T06:50:04.036Z,47.94
2017-06-03T06:51:13.314Z,47.94
2017-06-03T06:52:22.606Z,47.3
2017-06-03T06:53:31.561Z,47.77
2017-06-03T06:54:40.518Z,47.1
2017-06-03T06:55:49.474Z,47.1
2017-06-03T06:56:58.679Z,47.2
2017-06-03T06:58:07.637Z,47.1
2017-06-03T06:59:16.595Z,47.1
2017-06-03T07:00:25.550Z,46.91
2017-06-03T07:01:34.510Z,47.1
2017-06-03T07:02:43.720Z,47.68
2017-06-03T07:03:52.676Z,47.68
2017-06-03T07:05:01.632Z,47.1
2017-06-03T07:06:10.584Z,47.1
2017-06-03T07:07:19.544Z,47
2017-06-03T07:08:28.782Z,47.1
2017-06-03T07:09:37.738Z,47.1
2017-06-03T07:10:46.703Z,47.03
2017-06-03T07:11:55.666Z,46.93
2017-06-03T07:13:04.623Z,46.93
2017-06-03T07:14:13.834Z,46.26
2017-06-03T07:15:22.793Z,45.78
2017-06-03T07:16:31.754Z,45.97
2017-06-03T07:17:40.714Z,45.68
2017-06-03T07:18:49.669Z,45.39
2017-06-03T07:19:58.878Z,45.68
2017-06-03T07:21:07.838Z,45.68
2017-06-03T07:22:16.789Z,45.59
2017-06-03T07:23:25.749Z,45.7
2017-06-03T07:24:34.710Z,45.61
2017-06-03T07:25:43.915Z,45.9
2017-06-03T07:26:52.874Z,45.32
2017-06-03T07:28:01.833Z,44.84
2017-06-03T07:29:10.793Z,44.74
2017-06-03T07:30:19.749Z,44.55
2017-06-03T07:31:28.960Z,44.48
2017-06-03T07:32:38.013Z,44.09
2017-06-03T07:33:46.971Z,44.09
2017-06-03T07:34:55.934Z,44.38
2017-06-03T07:36:04.897Z,44.28
2017-06-03T07:37:14.104Z,44.57
2017-06-03T07:38:23.063Z,44.48
2017-06-03T07:39:32.019Z,44.76
2017-06-03T07:40:40.979Z,44.38
2017-06-03T07:41:49.935Z,44.76
2017-06-03T07:42:59.155Z,44.48
2017-06-03T07:44:08.117Z,44.19
2017-06-03T07:45:17.080Z,44.31
2017-06-03T07:46:26.036Z,44.49
2017-06-03T07:47:34.998Z,44.09
2017-06-03T07:48:44.211Z,44.21
2017-06-03T07:49:53.200Z,43.82
2017-06-03T07:51:02.166Z,43.05
2017-06-03T07:52:11.129Z,42.67
2017-06-03T07:53:20.180Z,41.89
2017-06-03T07:54:29.388Z,42.19
2017-06-03T07:55:38.364Z,41.89
2017-06-03T07:56:47.321Z,41.61
2017-06-03T07:57:56.282Z,41.22
2017-06-03T07:59:05.245Z,40.84
2017-06-03T08:00:14.506Z,40.64
2017-06-03T08:01:23.472Z,40.45
2017-06-03T08:02:32.756Z,40.57
2017-06-03T08:03:41.716Z,39.51
2017-06-03T08:04:50.674Z,39.7
2017-06-03T08:05:59.938Z,39.51
2017-06-03T08:07:08.902Z,39.99
2017-06-03T08:08:17.866Z,40.37
2017-06-03T08:09:27.578Z,40.47
2017-06-03T08:10:36.538Z,40.86
2017-06-03T08:11:45.757Z,41.44
2017-06-03T08:12:54.718Z,41.24
2017-06-03T08:14:03.678Z,41.72
2017-06-03T08:15:12.633Z,41.53
2017-06-03T08:16:21.687Z,40.86
2017-06-03T08:17:30.898Z,41.24
2017-06-03T08:18:39.854Z,41.53
2017-06-03T08:19:48.815Z,41.36
2017-06-03T08:20:57.777Z,40.97
2017-06-03T08:22:06.737Z,40.69
2017-06-03T08:23:15.998Z,40.59
2017-06-03T08:24:25.047Z,39.72
2017-06-03T08:25:34.008Z,39.62
2017-06-03T08:26:42.968Z,39.43
2017-06-03T08:27:51.926Z,40.3
2017-06-03T08:29:01.137Z,40.03
2017-06-03T08:30:10.103Z,39.64
2017-06-03T08:31:19.064Z,39.45
2017-06-03T08:32:28.026Z,39.45
2017-06-03T08:33:36.992Z,39.16
2017-06-03T08:34:46.205Z,39.26
2017-06-03T08:35:55.164Z,39.06
2017-06-03T08:37:04.132Z,38.87
2017-06-03T08:38:13.088Z,38.89
2017-06-03T08:39:22.048Z,39.28
2017-06-03T08:40:31.258Z,38.89
2017-06-03T08:41:40.213Z,38.79
2017-06-03T08:42:49.171Z,39.18
2017-06-03T08:43:58.137Z,38.79
2017-06-03T08:45:07.096Z,37.63
2017-06-03T08:46:16.313Z,36.57
2017-06-03T08:47:25.272Z,36.57
2017-06-03T08:48:34.229Z,36.38
2017-06-03T08:49:43.189Z,36.3
2017-06-03T08:50:52.153Z,36.11
2017-06-03T08:52:01.414Z,36.4
2017-06-03T08:53:10.407Z,36.71
2017-06-03T08:54:19.458Z,37.19
2017-06-03T08:55:28.417Z,37.29
2017-06-03T08:56:37.374Z,36.8
2017-06-03T08:57:46.585Z,36.8
2017-06-03T08:58:55.546Z,36.9
2017-06-03T09:00:04.507Z,36.71
2017-06-03T09:01:13.475Z,36.9
2017-06-03T09:02:22.437Z,36.52
2017-06-03T09:03:31.698Z,36.22
2017-06-03T09:04:40.656Z,36.53
2017-06-03T09:05:49.619Z,36.53
2017-06-03T09:06:58.581Z,36.24
2017-06-03T09:08:07.549Z,36.24
2017-06-03T09:09:16.755Z,36.53
2017-06-03T09:10:25.717Z,36.53
2017-06-03T09:11:34.854Z,36.34
2017-06-03T09:12:43.811Z,35.76
2017-06-03T09:13:52.771Z,35.28
2017-06-03T09:15:01.983Z,35.26
2017-06-03T09:16:10.942Z,35.45
2017-06-03T09:17:19.908Z,35.36
2017-06-03T09:18:28.875Z,35.64
2017-06-03T09:19:37.835Z,35.45
2017-06-03T09:20:47.460Z,35.55
2017-06-03T09:21:56.423Z,35.16
2017-06-03T09:23:05.382Z,35.16
2017-06-03T09:24:14.342Z,34.78
2017-06-03T09:25:23.308Z,34.39
2017-06-03T09:26:32.521Z,34.68
2017-06-03T09:27:41.480Z,34.78
2017-06-03T09:28:50.439Z,34.2
2017-06-03T09:29:59.399Z,34.58
2017-06-03T09:31:08.359Z,34.58
2017-06-03T09:32:17.572Z,34.39
2017-06-03T09:33:26.534Z,34.1
2017-06-03T09:34:35.497Z,34
2017-06-03T09:35:44.462Z,33.91
2017-06-03T09:36:53.425Z,33.62
2017-06-03T09:38:02.639Z,33.91
2017-06-03T09:39:11.609Z,33.89
2017-06-03T09:40:20.565Z,33.98
2017-06-03T09:41:29.524Z,34.47
2017-06-03T09:42:38.482Z,34.86
2017-06-03T09:43:47.690Z,34.86
2017-06-03T09:44:56.660Z,35.24
2017-06-03T09:46:05.628Z,35.24
2017-06-03T09:47:14.594Z,35.22
2017-06-03T09:48:23.554Z,34.74
2017-06-03T09:49:32.853Z,35.32
2017-06-03T09:50:41.816Z,35.03
2017-06-03T09:51:50.777Z,34.94
2017-06-03T09:52:59.741Z,35.32
2017-06-03T09:54:08.707Z,35.22
2017-06-03T09:55:17.920Z,35.61
2017-06-03T09:56:27.228Z,36.38
2017-06-03T09:57:36.186Z,36.19
2017-06-03T09:58:45.145Z,36.29
2017-06-03T09:59:54.106Z,36.29
2017-06-03T10:01:03.321Z,35.69
2017-06-03T10:02:12.603Z,35.69
2017-06-03T10:03:21.562Z,35.71
2017-06-03T10:04:30.546Z,35.69
2017-06-03T10:05:39.506Z,35.78
2017-06-03T10:06:48.717Z,35.88
2017-06-03T10:07:57.682Z,35.78
2017-06-03T10:09:06.646Z,36.17
2017-06-03T10:10:15.610Z,36
2017-06-03T10:11:24.569Z,36.09
2017-06-03T10:12:33.783Z,36.38
2017-06-03T10:13:42.742Z,36.29
2017-06-03T10:14:51.704Z,36.38
2017-06-03T10:16:00.664Z,36.38
2017-06-03T10:17:09.624Z,36.57
2017-06-03T10:18:18.833Z,36.57
2017-06-03T10:19:27.804Z,36.67
2017-06-03T10:20:36.768Z,36.67
2017-06-03T10:21:45.735Z,36.48
2017-06-03T10:22:54.696Z,36.87
2017-06-03T10:24:03.915Z,36.67
2017-06-03T10:25:13.051Z,37.06
2017-06-03T10:26:22.016Z,37.06
2017-06-03T10:27:30.977Z,37.63
2017-06-03T10:28:39.937Z,38.02
2017-06-03T10:29:49.151Z,38.02
2017-06-03T10:30:58.114Z,37.93
2017-06-03T10:32:07.077Z,37.83
2017-06-03T10:33:16.042Z,37.83
2017-06-03T10:34:25.002Z,37.45
2017-06-03T10:35:34.218Z,37.63
2017-06-03T10:36:43.180Z,37.83
2017-06-03T10:37:52.145Z,37.83
2017-06-03T10:39:01.193Z,37.83
2017-06-03T10:40:10.166Z,37.73
2017-06-03T10:41:19.380Z,37.73
2017-06-03T10:42:28.435Z,37.93
2017-06-03T10:43:37.398Z,38.21
2017-06-03T10:44:46.366Z,39.09
2017-06-03T10:45:55.326Z,39.09
2017-06-03T10:47:04.539Z,39.66
2017-06-03T10:48:13.526Z,39.18
2017-06-03T10:49:22.826Z,39.86
2017-06-03T10:50:31.785Z,40.34
2017-06-03T10:51:40.745Z,41.19
2017-06-03T10:52:50.010Z,42.35
2017-06-03T10:53:58.974Z,43.5
2017-06-03T10:55:07.936Z,44.37
2017-06-03T10:56:16.901Z,44.85
2017-06-03T10:57:25.865Z,45.43
2017-06-03T10:58:35.085Z,45.7
2017-06-03T10:59:44.046Z,46.37
2017-06-03T11:00:53.008Z,47.72
2017-06-03T11:02:01.968Z,51.58
2017-06-03T11:03:10.931Z,59.39
2017-06-03T11:04:20.138Z,64.08
2017-06-03T11:05:29.105Z,66.39
2017-06-03T11:06:38.065Z,68.9
2017-06-03T11:07:47.031Z,71.76
2017-06-03T11:08:55.991Z,73.2
2017-06-03T11:10:05.208Z,74.55
2017-06-03T11:11:14.175Z,75.13
2017-06-03T11:12:23.138Z,77.01
2017-06-03T11:13:32.102Z,76.44
2017-06-03T11:14:41.066Z,74.38
2017-06-03T11:15:50.275Z,78.42
2017-06-03T11:16:59.331Z,82.27
2017-06-03T11:18:08.289Z,84.83
2017-06-03T11:19:17.251Z,85.78
2017-06-03T11:20:26.298Z,86.08
2017-06-03T11:21:35.583Z,87.04
2017-06-03T11:22:44.547Z,88.39
2017-06-03T11:23:53.507Z,88.82
2017-06-03T11:25:02.475Z,89.3
2017-06-03T11:26:11.431Z,90.07
2017-06-03T11:27:20.640Z,90.75
2017-06-03T11:28:29.597Z,91.22
2017-06-03T11:29:38.556Z,91.99
2017-06-03T11:30:47.516Z,92.29
2017-06-03T11:31:56.565Z,92.67
2017-06-03T11:33:05.779Z,91.99
2017-06-03T11:34:14.731Z,93.34
2017-06-03T11:35:23.687Z,93.34
2017-06-03T11:36:32.647Z,93.53
2017-06-03T11:37:41.612Z,93.49
2017-06-03T11:38:50.831Z,94.01
2017-06-03T11:39:59.787Z,94.54
2017-06-03T11:41:08.748Z,94.78
2017-06-03T11:42:17.705Z,95.21
2017-06-03T11:43:26.667Z,94.93
2017-06-03T11:44:35.872Z,95.79
2017-06-03T11:45:44.831Z,95.84
2017-06-03T11:46:53.791Z,95.5
2017-06-03T11:48:02.753Z,95.79
2017-06-03T11:49:11.714Z,96.08
2017-06-03T11:50:21.471Z,95.7
2017-06-03T11:51:30.437Z,94.73
2017-06-03T11:52:39.570Z,94.45
2017-06-03T11:53:48.540Z,95.6
2017-06-03T11:54:57.497Z,96.47
2017-06-03T11:56:06.794Z,96.08
2017-06-03T11:57:15.763Z,96.17
2017-06-03T11:58:25.060Z,96.37
2017-06-03T11:59:34.017Z,96.56
2017-06-03T12:00:42.976Z,96.56
2017-06-03T12:01:52.188Z,96.47
2017-06-03T12:03:01.151Z,96.85
2017-06-03T12:04:10.114Z,97.14
2017-06-03T12:05:19.074Z,97.71
2017-06-03T12:06:28.123Z,97.81
2017-06-03T12:07:37.385Z,97.62
2017-06-03T12:08:46.340Z,96.66
2017-06-03T12:09:55.302Z,96.66
2017-06-03T12:11:04.256Z,95.4
2017-06-03T12:12:13.214Z,94.78
2017-06-03T12:13:22.419Z,96.42
2017-06-03T12:14:31.380Z,97.09
2017-06-03T12:15:40.338Z,97.86
2017-06-03T12:16:49.296Z,97.38
2017-06-03T12:17:58.252Z,97.76
2017-06-03T12:19:07.469Z,98.34
2017-06-03T12:20:16.425Z,97.91
2017-06-03T12:21:25.474Z,98.34
2017-06-03T12:22:34.433Z,96.8
2017-06-03T12:23:43.391Z,97.19
2017-06-03T12:24:52.596Z,97.96
2017-06-03T12:26:01.563Z,97.66
2017-06-03T12:27:10.521Z,97.19
2017-06-03T12:28:19.487Z,96.8
2017-06-03T12:29:28.440Z,96.03
2017-06-03T12:30:37.709Z,96.42
2017-06-03T12:31:46.665Z,97.19
2017-06-03T12:32:55.622Z,96.61
2017-06-03T12:34:04.594Z,97.76
2017-06-03T12:35:13.553Z,97.57
2017-06-03T12:36:22.759Z,97.86
2017-06-03T12:37:31.711Z,97.96
2017-06-03T12:38:40.666Z,98.34
2017-06-03T12:39:49.802Z,97.86
2017-06-03T12:40:58.847Z,98.14
2017-06-03T12:42:08.233Z,98.53
2017-06-03T12:43:17.201Z,98.53
2017-06-03T12:44:26.157Z,98.72
2017-06-03T12:45:35.151Z,98.53
2017-06-03T12:46:44.112Z,98.53
2017-06-03T12:47:53.317Z,97.19
2017-06-03T12:49:02.371Z,97.09
2017-06-03T12:50:11.332Z,98.14
2017-06-03T12:51:20.296Z,96.8
2017-06-03T12:52:29.581Z,97.76
2017-06-03T12:53:38.817Z,98.24
2017-06-03T12:54:47.778Z,98.82
2017-06-03T12:55:56.739Z,98.34
2017-06-03T12:57:05.701Z,97.66
2017-06-03T12:58:14.743Z,98
2017-06-03T12:59:23.954Z,98.19
2017-06-03T13:00:32.914Z,98.67
2017-06-03T13:01:41.874Z,98.38
2017-06-03T13:02:50.832Z,98.91
2017-06-03T13:03:59.790Z,99.58
2017-06-03T13:05:09.177Z,99.78
2017-06-03T13:06:18.462Z,99.4
2017-06-03T13:07:27.421Z,99.49
2017-06-03T13:08:36.382Z,99.49
2017-06-03T13:09:45.352Z,99.58
2017-06-03T13:10:54.609Z,99.49
2017-06-03T13:12:03.568Z,98.86
2017-06-03T13:13:12.533Z,99.05
2017-06-03T13:14:21.490Z,99.63
2017-06-03T13:15:30.453Z,99.99
2017-06-03T13:16:39.684Z,99.99
2017-06-03T13:17:48.641Z,99.99
2017-06-03T13:18:57.599Z,99.99
2017-06-03T13:20:06.557Z,99.99
2017-06-03T13:21:15.514Z,99.99
2017-06-03T13:22:24.726Z,99.99
2017-06-03T13:23:33.684Z,99.99
2017-06-03T13:24:42.643Z,99.99
2017-06-03T13:25:51.594Z,99.99
2017-06-03T13:27:00.558Z,99.99
2017-06-03T13:28:09.906Z,99.63
2017-06-03T13:29:18.874Z,99.34
2017-06-03T13:30:27.829Z,99.34
2017-06-03T13:31:36.789Z,99.54
2017-06-03T13:32:45.744Z,99.05
2017-06-03T13:33:54.948Z,99.44
2017-06-03T13:35:03.910Z,99.92
2017-06-03T13:36:12.962Z,99.73
2017-06-03T13:37:21.926Z,99.54
2017-06-03T13:38:30.884Z,99.44
2017-06-03T13:39:40.091Z,98.96
2017-06-03T13:40:49.050Z,98.38
2017-06-03T13:41:58.005Z,98.67
2017-06-03T13:43:07.287Z,98.48
2017-06-03T13:44:16.249Z,98.58
2017-06-03T13:45:25.457Z,99.34
2017-06-03T13:46:34.441Z,99.05
2017-06-03T13:47:43.393Z,99.54
2017-06-03T13:48:52.352Z,99.99
2017-06-03T13:50:01.336Z,99.99
2017-06-03T13:51:10.549Z,99.99
2017-06-03T13:52:19.515Z,99.99
2017-06-03T13:53:28.477Z,99.99
2017-06-03T13:54:37.765Z,99.99
2017-06-03T13:55:46.729Z,99.99
2017-06-03T13:56:55.939Z,99.99
2017-06-03T13:58:04.894Z,99.99
2017-06-03T13:59:13.853Z,99.99
2017-06-03T14:00:22.815Z,99.99
2017-06-03T14:01:31.774Z,99.99
2017-06-03T14:02:40.984Z,99.99
2017-06-03T14:03:49.969Z,99.99
2017-06-03T14:04:58.929Z,99.99
2017-06-03T14:06:07.906Z,99.99
2017-06-03T14:07:16.873Z,99.99
2017-06-03T14:08:26.171Z,99.99
2017-06-03T14:09:35.129Z,99.99
2017-06-03T14:10:44.089Z,99.99
2017-06-03T14:11:53.049Z,99.99
2017-06-03T14:13:02.362Z,99.99
2017-06-03T14:14:11.568Z,99.99
2017-06-03T14:15:20.520Z,99.99
2017-06-03T14:16:29.476Z,99.99
2017-06-03T14:17:38.431Z,99.99
2017-06-03T14:18:47.392Z,99.99
2017-06-03T14:19:56.603Z,99.99
2017-06-03T14:21:05.560Z,99.99
2017-06-03T14:22:14.529Z,99.99
2017-06-03T14:23:23.484Z,99.99
2017-06-03T14:24:32.443Z,99.99
2017-06-03T14:25:41.651Z,99.99
2017-06-03T14:26:50.610Z,99.99
2017-06-03T14:27:59.890Z,99.99
2017-06-03T14:29:08.846Z,99.99
2017-06-03T14:30:17.808Z,99.99
2017-06-03T14:31:27.013Z,99.99
2017-06-03T14:32:35.972Z,99.99
2017-06-03T14:33:44.932Z,99.99
2017-06-03T14:34:53.889Z,99.99
2017-06-03T14:36:02.943Z,99.99
2017-06-03T14:37:12.152Z,99.99
2017-06-03T14:38:21.112Z,99.99
2017-06-03T14:39:30.070Z,99.99
2017-06-03T14:40:39.027Z,99.99
2017-06-03T14:41:47.986Z,99.99
2017-06-03T14:42:57.198Z,99.99
2017-06-03T14:44:06.157Z,99.99
2017-06-03T14:45:15.112Z,99.99
2017-06-03T14:46:24.067Z,99.99
2017-06-03T14:47:33.026Z,99.99
2017-06-03T14:48:42.375Z,99.99
2017-06-03T14:49:51.328Z,99.99
2017-06-03T14:51:00.291Z,99.99
2017-06-03T14:52:09.252Z,99.99
2017-06-03T14:53:18.206Z,99.99